createdAt,value
2022-11-28T00:01:19.351Z,159784.75
2022-11-28T00:04:25.279Z,159775.66
2022-11-28T00:07:29.223Z,159753.44
2022-11-28T00:10:33.425Z,159754.78
2022-11-28T00:13:38.150Z,159749.53
2022-11-28T00:16:42.345Z,159753.44
2022-11-28T00:19:46.594Z,159750.84
2022-11-28T00:22:52.170Z,159749.53
2022-11-28T00:26:01.471Z,159741.72
2022-11-28T00:29:05.722Z,159728.69
2022-11-28T00:32:10.143Z,159732.56
2022-11-28T00:35:14.512Z,159727.44
2022-11-28T00:38:18.765Z,159754.78
2022-11-28T00:41:26.284Z,159757.38
2022-11-28T00:44:30.434Z,159736.47
2022-11-28T00:47:34.140Z,159732.56
2022-11-28T00:50:38.256Z,159746.94
2022-11-28T00:53:44.586Z,159769.09
2022-11-28T00:56:48.638Z,159797.81
2022-11-28T00:59:52.730Z,159799.09
2022-11-28T01:02:56.693Z,159789.94
2022-11-28T01:06:02.953Z,159746.94
2022-11-28T01:09:10.717Z,159758.69
2022-11-28T01:12:14.554Z,159753.44
2022-11-28T01:15:18.836Z,159757.38
2022-11-28T01:18:23.027Z,159756.09
2022-11-28T01:21:27.343Z,159753.44
2022-11-28T01:24:31.400Z,159754.78
2022-11-28T01:27:35.471Z,159758.69
2022-11-28T01:30:39.697Z,159774.34
2022-11-28T01:33:43.919Z,159777.00
2022-11-28T01:36:48.197Z,159783.44
2022-11-28T01:39:52.432Z,159784.75
2022-11-28T01:42:56.555Z,159814.75
2022-11-28T01:46:01.291Z,159818.66
2022-11-28T01:49:09.297Z,159816.06
2022-11-28T01:52:16.783Z,159839.50
2022-11-28T01:55:24.489Z,159842.16
2022-11-28T01:58:30.828Z,159835.59
2022-11-28T02:01:34.852Z,159829.09
2022-11-28T02:04:39.266Z,159820.00
2022-11-28T02:07:44.538Z,159835.59
2022-11-28T02:11:16.893Z,159826.50
2022-11-28T02:14:30.765Z,159850.00
2022-11-28T02:17:56.515Z,159865.66
2022-11-28T02:21:29.297Z,159860.41
2022-11-28T02:25:17.510Z,159846.06
2022-11-28T02:28:29.617Z,159827.78
2022-11-28T02:31:43.021Z,159820.00
2022-11-28T02:34:53.075Z,159831.69
2022-11-28T02:38:29.065Z,159814.75
2022-11-28T02:41:57.837Z,159826.50
2022-11-28T02:45:10.963Z,159805.66
2022-11-28T02:48:47.231Z,159826.50
2022-11-28T02:52:03.278Z,159812.16
2022-11-28T02:55:08.551Z,159830.41
2022-11-28T02:58:13.128Z,159813.50
2022-11-28T03:01:25.674Z,159823.91
2022-11-28T03:04:36.106Z,159831.69
2022-11-28T03:07:58.155Z,159835.59
2022-11-28T03:11:32.985Z,159855.22
2022-11-28T03:14:50.824Z,159846.06
2022-11-28T03:18:06.760Z,159883.91
2022-11-28T03:21:15.053Z,159850.00
2022-11-28T03:24:27.876Z,159878.66
2022-11-28T03:27:37.890Z,159793.88
2022-11-28T03:30:49.019Z,159818.66
2022-11-28T03:33:59.567Z,159835.59
2022-11-28T03:37:09.958Z,159827.78
2022-11-28T03:40:20.462Z,159810.84
2022-11-28T03:43:34.553Z,159850.00
2022-11-28T03:46:44.697Z,159866.97
2022-11-28T03:49:52.982Z,159850.00
2022-11-28T03:53:03.058Z,159838.25
2022-11-28T03:56:17.600Z,159839.50
2022-11-28T03:59:47.968Z,159833.00
2022-11-28T04:03:10.856Z,159816.06
2022-11-28T04:06:21.479Z,159823.91
2022-11-28T04:09:42.088Z,159833.00
2022-11-28T04:13:20.061Z,159848.66
2022-11-28T04:16:53.442Z,159816.06
2022-11-28T04:20:27.002Z,159844.75
2022-11-28T04:23:32.874Z,159844.75
2022-11-28T04:26:43.632Z,159863.06
2022-11-28T04:29:51.236Z,159852.59
2022-11-28T04:33:01.468Z,159825.22
2022-11-28T04:36:07.546Z,159850.00
2022-11-28T04:39:18.244Z,159886.50
2022-11-28T04:42:42.407Z,159866.97
2022-11-28T04:45:52.518Z,159887.81
2022-11-28T04:48:56.912Z,159879.97
2022-11-28T04:52:14.919Z,159908.72
2022-11-28T04:55:43.598Z,159847.41
2022-11-28T04:58:50.141Z,159814.75
2022-11-28T05:01:55.818Z,159843.44
2022-11-28T05:05:00.051Z,159834.31
2022-11-28T05:08:04.166Z,159834.31
2022-11-28T05:11:08.052Z,159834.31
2022-11-28T05:14:12.001Z,159833.00
2022-11-28T05:17:16.191Z,159848.66
2022-11-28T05:20:20.669Z,159822.63
2022-11-28T05:23:24.931Z,159838.25
2022-11-28T05:26:32.170Z,159836.91
2022-11-28T05:29:36.200Z,159852.59
2022-11-28T05:32:40.658Z,159827.78
2022-11-28T05:35:44.839Z,159829.09
2022-11-28T05:38:48.782Z,159826.50
2022-11-28T05:41:55.231Z,159829.09
2022-11-28T05:44:58.994Z,159834.31
2022-11-28T05:48:02.787Z,159844.75
2022-11-28T05:51:07.597Z,159859.13
2022-11-28T05:54:11.951Z,159866.97
2022-11-28T05:57:15.823Z,159876.06
2022-11-28T06:00:20.438Z,159876.06
2022-11-28T06:03:24.506Z,159887.81
2022-11-28T06:06:31.292Z,159881.25
2022-11-28T06:09:35.684Z,159870.88
2022-11-28T06:12:39.994Z,159882.59
2022-11-28T06:15:45.055Z,159902.16
2022-11-28T06:18:52.589Z,159886.50
2022-11-28T06:21:56.822Z,159915.22
2022-11-28T06:25:00.997Z,159928.25
2022-11-28T06:28:05.277Z,159964.75
2022-11-28T06:31:18.198Z,159941.31
2022-11-28T06:34:22.927Z,159930.84
2022-11-28T06:37:28.186Z,159966.09
2022-11-28T06:40:32.413Z,159971.31
2022-11-28T06:43:37.400Z,159954.38
2022-11-28T06:46:41.512Z,159934.75
2022-11-28T06:49:45.807Z,159929.56
2022-11-28T06:52:49.811Z,159980.44
2022-11-28T06:55:53.721Z,159980.44
2022-11-28T06:59:00.114Z,159977.84
2022-11-28T07:02:07.408Z,159959.56
2022-11-28T07:05:12.105Z,159975.25
2022-11-28T07:08:16.174Z,159946.56
2022-11-28T07:11:23.447Z,159943.91
2022-11-28T07:14:27.492Z,159954.38
2022-11-28T07:17:31.826Z,159958.31
2022-11-28T07:20:36.115Z,159983.06
2022-11-28T07:23:40.291Z,160001.34
2022-11-28T07:26:45.781Z,159979.16
2022-11-28T07:29:50.145Z,160013.03
2022-11-28T07:32:54.409Z,160050.88
2022-11-28T07:36:04.508Z,160030.03
2022-11-28T07:39:13.621Z,160026.09
2022-11-28T07:42:17.985Z,159993.50
2022-11-28T07:45:22.999Z,159993.50
2022-11-28T07:48:27.001Z,159977.84
2022-11-28T07:51:33.414Z,160018.28
2022-11-28T07:54:37.509Z,159996.16
2022-11-28T07:57:41.675Z,159990.91
2022-11-28T08:00:45.529Z,159993.50
2022-11-28T08:03:50.113Z,159993.50
2022-11-28T08:06:54.238Z,159989.59
2022-11-28T08:09:57.948Z,159993.50
2022-11-28T08:13:02.216Z,160009.13
2022-11-28T08:16:09.161Z,160033.94
2022-11-28T08:19:13.947Z,160024.84
2022-11-28T08:22:18.150Z,160015.69
2022-11-28T08:25:21.927Z,160027.44
2022-11-28T08:28:26.204Z,160032.66
2022-11-28T08:31:36.173Z,159988.25
2022-11-28T08:34:40.600Z,159994.81
2022-11-28T08:37:44.851Z,160007.84
2022-11-28T08:40:48.969Z,160015.69
2022-11-28T08:43:52.751Z,160017.00
2022-11-28T08:46:57.207Z,160040.50
2022-11-28T08:50:01.400Z,160024.84
2022-11-28T08:53:08.502Z,160030.03
2022-11-28T08:56:13.126Z,160046.97
2022-11-28T08:59:17.121Z,160058.72
2022-11-28T09:02:25.763Z,160063.97
2022-11-28T09:05:30.765Z,160083.50
2022-11-28T09:08:34.528Z,160100.47
2022-11-28T09:11:38.776Z,160101.81
2022-11-28T09:14:42.793Z,160096.56
2022-11-28T09:17:46.858Z,160122.66
2022-11-28T09:20:50.898Z,160131.81
2022-11-28T09:23:56.045Z,160105.72
2022-11-28T09:26:59.982Z,160118.78
2022-11-28T09:30:04.807Z,160101.81
2022-11-28T09:33:09.652Z,160099.22
2022-11-28T09:36:16.057Z,160104.41
2022-11-28T09:39:20.174Z,160082.22
2022-11-28T09:42:32.051Z,160146.19
2022-11-28T09:45:36.359Z,160142.25
2022-11-28T09:48:46.707Z,160190.59
2022-11-28T09:51:57.875Z,160242.78
2022-11-28T09:55:12.964Z,160234.94
2022-11-28T09:58:27.258Z,160251.94
2022-11-28T10:01:40.521Z,160233.59
2022-11-28T10:04:49.407Z,160202.31
2022-11-28T10:08:03.086Z,160232.28
2022-11-28T10:11:26.789Z,160224.50
2022-11-28T10:14:53.581Z,160304.13
2022-11-28T10:18:36.485Z,160335.47
2022-11-28T10:21:52.916Z,160361.59
2022-11-28T10:25:06.232Z,160330.22
2022-11-28T10:28:17.606Z,160327.63
2022-11-28T10:31:36.632Z,160360.31
2022-11-28T10:34:53.668Z,160321.13
2022-11-28T10:37:57.674Z,160332.81
2022-11-28T10:41:14.310Z,160392.97
2022-11-28T10:44:26.338Z,160372.03
2022-11-28T10:47:52.390Z,160368.13
2022-11-28T10:51:08.207Z,160342.00
2022-11-28T10:54:30.931Z,160359.00
2022-11-28T10:57:45.696Z,160377.22
2022-11-28T11:00:53.720Z,160374.63
2022-11-28T11:03:57.852Z,160361.59
2022-11-28T11:07:22.732Z,160403.34
2022-11-28T11:10:49.566Z,160378.56
2022-11-28T11:14:13.924Z,160436.00
2022-11-28T11:17:36.233Z,160417.78
2022-11-28T11:20:40.917Z,160442.56
2022-11-28T11:23:46.240Z,160450.41
2022-11-28T11:26:51.095Z,160476.50
2022-11-28T11:29:55.748Z,160449.09
2022-11-28T11:33:01.421Z,160426.88
2022-11-28T11:36:21.571Z,160432.06
2022-11-28T11:39:26.203Z,160451.69
2022-11-28T11:42:32.913Z,160479.13
2022-11-28T11:45:37.268Z,160467.38
2022-11-28T11:48:44.384Z,160492.19
2022-11-28T11:51:56.395Z,160497.38
2022-11-28T11:55:13.416Z,160493.44
2022-11-28T11:58:25.449Z,160469.97
2022-11-28T12:01:31.921Z,160458.25
2022-11-28T12:04:47.047Z,160467.38
2022-11-28T12:08:09.851Z,160471.28
2022-11-28T12:11:25.655Z,160472.56
2022-11-28T12:14:35.051Z,160477.81
2022-11-28T12:18:08.383Z,160476.50
2022-11-28T12:21:16.066Z,160485.66
2022-11-28T12:24:30.708Z,160496.09
2022-11-28T12:27:56.442Z,160502.63
2022-11-28T12:31:29.046Z,160515.72
2022-11-28T12:34:49.742Z,160560.09
2022-11-28T12:38:12.646Z,160553.56
2022-11-28T12:41:37.944Z,160547.03
2022-11-28T12:45:00.539Z,160567.94
2022-11-28T12:48:29.024Z,160523.50
2022-11-28T12:51:42.003Z,160544.44
2022-11-28T12:54:57.188Z,160557.47
2022-11-28T12:58:16.448Z,160547.03
2022-11-28T13:01:29.670Z,160578.44
2022-11-28T13:05:05.030Z,160507.88
2022-11-28T13:08:27.851Z,160510.47
2022-11-28T13:12:17.873Z,160532.69
2022-11-28T13:15:40.963Z,160544.44
2022-11-28T13:19:00.444Z,160523.50
2022-11-28T13:22:23.288Z,160544.44
2022-11-28T13:25:43.396Z,160583.63
2022-11-28T13:28:51.264Z,160569.25
2022-11-28T13:32:09.313Z,160577.09
2022-11-28T13:35:15.448Z,160552.25
2022-11-28T13:39:08.143Z,160501.28
2022-11-28T13:42:44.247Z,160523.50
2022-11-28T13:45:47.410Z,160523.50
2022-11-28T13:49:13.860Z,160530.09
2022-11-28T13:52:18.664Z,160557.47
2022-11-28T13:55:40.718Z,160552.25
2022-11-28T13:59:02.767Z,160531.34
2022-11-28T14:02:21.702Z,160534.00
2022-11-28T14:05:34.009Z,160526.16
2022-11-28T14:08:41.247Z,160547.03
2022-11-28T14:11:49.922Z,160531.34
2022-11-28T14:15:18.740Z,160500.03
2022-11-28T14:18:57.736Z,160484.38
2022-11-28T14:22:05.684Z,160479.13
2022-11-28T14:25:26.474Z,160515.72
2022-11-28T14:28:36.748Z,160485.66
2022-11-28T14:32:06.672Z,160486.97
2022-11-28T14:35:39.536Z,160433.41
2022-11-28T14:38:44.114Z,160454.34
2022-11-28T14:42:06.712Z,160450.41
2022-11-28T14:45:33.488Z,160436.00
2022-11-28T14:48:42.051Z,160426.88
2022-11-28T14:51:49.708Z,160432.06
2022-11-28T14:54:54.832Z,160419.03
2022-11-28T14:58:01.643Z,160412.53
2022-11-28T15:01:13.278Z,160409.91
2022-11-28T15:04:45.892Z,160404.69
2022-11-28T15:08:07.744Z,160422.97
2022-11-28T15:11:30.446Z,160434.72
2022-11-28T15:14:35.110Z,160415.13
2022-11-28T15:17:41.501Z,160408.59
2022-11-28T15:20:53.894Z,160385.13
2022-11-28T15:23:57.971Z,160419.03
2022-11-28T15:27:08.141Z,160432.06
2022-11-28T15:30:20.710Z,160434.72
2022-11-28T15:33:26.429Z,160426.88
2022-11-28T15:36:30.655Z,160400.75
2022-11-28T15:39:40.268Z,160389.03
2022-11-28T15:42:48.702Z,160404.69
2022-11-28T15:45:58.492Z,160416.44
2022-11-28T15:49:03.938Z,160413.84
2022-11-28T15:52:17.454Z,160390.31
2022-11-28T15:55:22.107Z,160391.63
2022-11-28T15:58:29.194Z,160409.91
2022-11-28T16:01:33.652Z,160417.78
2022-11-28T16:04:38.277Z,160408.59
2022-11-28T16:07:43.920Z,160424.28
2022-11-28T16:10:48.082Z,160404.69
2022-11-28T16:13:55.819Z,160366.78
2022-11-28T16:17:02.563Z,160403.34
2022-11-28T16:20:06.955Z,160385.13
2022-11-28T16:23:19.433Z,160413.84
2022-11-28T16:26:35.424Z,160387.72
2022-11-28T16:29:45.439Z,160394.22
2022-11-28T16:32:50.998Z,160411.19
2022-11-28T16:36:08.865Z,160416.44
2022-11-28T16:39:17.232Z,160399.44
2022-11-28T16:42:21.350Z,160390.31
2022-11-28T16:45:27.266Z,160411.19
2022-11-28T16:48:35.356Z,160403.34
2022-11-28T16:51:41.203Z,160403.34
2022-11-28T16:54:45.224Z,160399.44
2022-11-28T16:57:57.967Z,160396.84
2022-11-28T17:01:02.651Z,160389.03
2022-11-28T17:04:18.239Z,160408.59
2022-11-28T17:07:23.986Z,160383.78
2022-11-28T17:10:28.392Z,160412.53
2022-11-28T17:13:32.413Z,160403.34
2022-11-28T17:16:37.609Z,160378.56
2022-11-28T17:19:42.442Z,160356.41
2022-11-28T17:22:47.816Z,160360.31
2022-11-28T17:25:52.367Z,160379.88
2022-11-28T17:28:58.734Z,160361.59
2022-11-28T17:32:03.506Z,160366.78
2022-11-28T17:35:24.691Z,160383.78
2022-11-28T17:38:31.920Z,160383.78
2022-11-28T17:41:36.351Z,160364.25
2022-11-28T17:44:40.846Z,160327.63
2022-11-28T17:47:45.732Z,160344.59
2022-11-28T17:50:50.992Z,160334.16
2022-11-28T17:53:54.967Z,160336.75
2022-11-28T17:56:58.996Z,160336.75
2022-11-28T18:00:07.933Z,160339.41
2022-11-28T18:03:13.615Z,160327.63
2022-11-28T18:06:18.138Z,160345.91
2022-11-28T18:09:22.466Z,160377.22
2022-11-28T18:12:26.895Z,160374.63
2022-11-28T18:15:32.618Z,160342.00
2022-11-28T18:18:37.514Z,160306.72
2022-11-28T18:21:41.541Z,160301.53
2022-11-28T18:24:45.801Z,160339.41
2022-11-28T18:27:50.341Z,160314.59
2022-11-28T18:30:54.549Z,160301.53
2022-11-28T18:34:04.000Z,160301.53
2022-11-28T18:37:08.420Z,160327.63
2022-11-28T18:40:12.486Z,160317.19
2022-11-28T18:43:16.383Z,160281.91
2022-11-28T18:46:20.853Z,160295.00
2022-11-28T18:49:25.003Z,160328.97
2022-11-28T18:52:29.263Z,160302.78
2022-11-28T18:55:33.402Z,160301.53
2022-11-28T18:58:40.371Z,160301.53
2022-11-28T19:01:44.684Z,160305.44
2022-11-28T19:04:48.914Z,160275.41
2022-11-28T19:07:53.392Z,160289.81
2022-11-28T19:11:00.955Z,160271.47
2022-11-28T19:14:06.789Z,160264.97
2022-11-28T19:17:12.145Z,160264.97
2022-11-28T19:20:16.758Z,160246.69
2022-11-28T19:23:20.623Z,160276.72
2022-11-28T19:26:26.638Z,160283.25
2022-11-28T19:29:31.182Z,160285.88
2022-11-28T19:32:36.265Z,160281.91
2022-11-28T19:35:40.332Z,160262.38
2022-11-28T19:38:44.615Z,160274.06
2022-11-28T19:41:50.081Z,160270.16
2022-11-28T19:44:54.515Z,160262.38
2022-11-28T19:47:58.859Z,160267.56
2022-11-28T19:51:04.002Z,160248.00
2022-11-28T19:54:08.510Z,160245.38
2022-11-28T19:57:12.792Z,160255.84
2022-11-28T20:00:18.149Z,160267.56
2022-11-28T20:03:22.007Z,160251.94
2022-11-28T20:06:28.966Z,160234.94
2022-11-28T20:09:32.826Z,160258.44
2022-11-28T20:12:37.066Z,160253.22
2022-11-28T20:15:41.443Z,160258.44
2022-11-28T20:18:45.919Z,160250.59
2022-11-28T20:21:50.090Z,160241.44
2022-11-28T20:24:54.246Z,160236.25
2022-11-28T20:27:58.442Z,160263.69
2022-11-28T20:31:03.031Z,160249.28
2022-11-28T20:34:07.114Z,160229.69
2022-11-28T20:37:11.681Z,160245.38
2022-11-28T20:40:15.908Z,160223.22
2022-11-28T20:43:21.205Z,160234.94
2022-11-28T20:46:28.313Z,160257.13
2022-11-28T20:49:32.427Z,160229.69
2022-11-28T20:52:36.662Z,160221.91
2022-11-28T20:55:40.860Z,160197.06
2022-11-28T20:58:45.440Z,160237.53
2022-11-28T21:01:49.959Z,160202.31
2022-11-28T21:04:53.883Z,160229.69
2022-11-28T21:07:57.966Z,160233.59
2022-11-28T21:11:07.642Z,160246.69
2022-11-28T21:14:11.886Z,160210.16
2022-11-28T21:17:15.646Z,160220.59
2022-11-28T21:20:19.650Z,160221.91
2022-11-28T21:23:23.622Z,160215.38
2022-11-28T21:26:30.591Z,160225.81
2022-11-28T21:29:35.064Z,160215.38
2022-11-28T21:32:39.244Z,160236.25
2022-11-28T21:35:43.311Z,160234.94
2022-11-28T21:38:51.871Z,160220.59
2022-11-28T21:41:55.727Z,160249.28
2022-11-28T21:45:00.023Z,160228.38
2022-11-28T21:48:04.280Z,160245.38
2022-11-28T21:51:15.418Z,160233.59
2022-11-28T21:54:19.241Z,160219.31
2022-11-28T21:57:23.181Z,160220.59
2022-11-28T22:00:52.050Z,160219.31
2022-11-28T22:03:50.603Z,160199.66
2022-11-28T22:06:54.688Z,160225.81
2022-11-28T22:09:58.744Z,160232.28
2022-11-28T22:13:03.015Z,160224.50
2022-11-28T22:16:16.185Z,160208.81
2022-11-28T22:19:20.794Z,160198.38
2022-11-28T22:22:27.423Z,160200.97
2022-11-28T22:25:31.675Z,160227.16
2022-11-28T22:28:37.112Z,160219.31
2022-11-28T22:31:41.042Z,160194.47
2022-11-28T22:34:46.210Z,160191.88
2022-11-28T22:37:53.234Z,160199.66
2022-11-28T22:40:57.941Z,160186.69
2022-11-28T22:44:03.854Z,160225.81
2022-11-28T22:47:08.139Z,160214.06
2022-11-28T22:50:11.956Z,160195.75
2022-11-28T22:53:16.587Z,160202.31
2022-11-28T22:56:20.799Z,160181.44
2022-11-28T22:59:25.235Z,160181.44
2022-11-28T23:02:29.469Z,160170.97
2022-11-28T23:05:33.773Z,160180.13
2022-11-28T23:08:38.494Z,160169.69
2022-11-28T23:11:42.946Z,160161.84
2022-11-28T23:14:48.618Z,160156.66
2022-11-28T23:17:52.526Z,160152.75
2022-11-28T23:20:56.329Z,160168.38
2022-11-28T23:24:00.993Z,160189.28
2022-11-28T23:27:05.171Z,160198.38
2022-11-28T23:30:09.406Z,160182.72
2022-11-28T23:33:13.266Z,160185.38
2022-11-28T23:36:21.731Z,160176.19
2022-11-28T23:39:25.821Z,160181.44
2022-11-28T23:42:30.207Z,160177.53
2022-11-28T23:45:34.323Z,160181.44
2022-11-28T23:48:39.161Z,160186.69
2022-11-28T23:51:43.179Z,160197.06
2022-11-28T23:54:47.227Z,160193.16
2022-11-28T23:57:51.265Z,160198.38
